Time;durP1;ratioP1;P1;durP2;ratioP2;P2;SDS_P1;SDS_P2;PMS_P1;PMS_P2;Temp;Humidity;BMP_temperature;BMP_pressure;BME280_temperature;BME280_humidity;BME280_pressure;Samples;Min_cycle;Max_cycle;Signal;HPM_P1;HPM_P2
2022/01/05 00:02:15;;;;;;;2.30;2.20;;;6.20;99.90;;;;;;5029917;28;20895;-74
2022/01/05 00:04:42;;;;;;;2.30;2.03;;;6.20;99.90;;;;;;5014773;28;20462;-75
2022/01/05 00:07:08;;;;;;;2.77;1.73;;;6.20;99.90;;;;;;5010282;28;20485;-75
2022/01/05 00:09:35;;;;;;;1.87;1.77;;;6.20;99.90;;;;;;5029015;28;20445;-75
2022/01/05 00:12:02;;;;;;;2.23;1.80;;;6.20;99.90;;;;;;5030068;28;20818;-75
2022/01/05 00:14:30;;;;;;;2.27;2.07;;;6.20;99.90;;;;;;5030593;28;20466;-74
2022/01/05 00:16:57;;;;;;;2.13;1.83;;;6.10;99.90;;;;;;5029900;28;20538;-75
2022/01/05 00:19:24;;;;;;;2.60;2.03;;;6.10;99.90;;;;;;5030246;28;20481;-75
2022/01/05 00:21:50;;;;;;;2.13;2.03;;;6.10;99.90;;;;;;5030327;28;20446;-74
2022/01/05 00:24:17;;;;;;;1.83;1.73;;;6.00;99.90;;;;;;5029954;28;20961;-75
2022/01/05 00:26:43;;;;;;;2.50;2.30;;;6.10;99.90;;;;;;5020085;28;20477;-75
2022/01/05 00:29:10;;;;;;;2.37;2.27;;;6.00;99.90;;;;;;5027944;28;20446;-75
2022/01/05 00:31:38;;;;;;;2.20;2.07;;;6.00;99.90;;;;;;5029775;28;20491;-74
2022/01/05 00:34:05;;;;;;;2.00;1.90;;;6.00;99.90;;;;;;5030200;28;20806;-74
2022/01/05 00:36:32;;;;;;;4.60;1.97;;;6.00;99.90;;;;;;5029799;28;21009;-75
2022/01/05 00:38:58;;;;;;;2.00;1.90;;;6.00;99.90;;;;;;5034120;28;20482;-75
2022/01/05 00:41:25;;;;;;;2.00;1.90;;;6.30;99.90;;;;;;5033798;28;20461;-74
2022/01/05 00:43:51;;;;;;;1.90;1.80;;;5.90;99.90;;;;;;5033797;28;20449;-75
2022/01/05 00:46:18;;;;;;;2.47;2.20;;;6.00;99.90;;;;;;5032939;28;20473;-75
2022/01/05 00:48:46;;;;;;;1.80;1.70;;;6.00;99.90;;;;;;5033409;28;20510;-75
2022/01/05 00:51:15;;;;;;;2.47;2.27;;;5.90;99.90;;;;;;5026760;28;20445;-75
2022/01/05 00:53:42;;;;;;;2.53;2.07;;;5.90;99.90;;;;;;5033969;28;20468;-75
2022/01/05 00:56:09;;;;;;;2.20;2.00;;;5.90;99.90;;;;;;5039983;22;20566;-70
2022/01/05 00:58:35;;;;;;;2.60;2.40;;;6.00;99.90;;;;;;5038803;28;21046;-70
2022/01/05 01:01:02;;;;;;;2.90;2.30;;;6.00;99.90;;;;;;5034588;28;20554;-70
2022/01/05 01:03:29;;;;;;;2.53;2.43;;;6.00;99.90;;;;;;5038916;28;20857;-70
2022/01/05 01:05:58;;;;;;;5.03;2.00;;;6.00;99.90;;;;;;5052729;28;20468;-70
2022/01/05 01:08:25;;;;;;;2.60;2.40;;;6.00;99.90;;;;;;5041318;28;20548;-70
2022/01/05 01:10:52;;;;;;;2.33;2.20;;;6.00;99.90;;;;;;5053877;28;20494;-70
2022/01/05 01:13:20;;;;;;;2.90;1.93;;;6.00;99.90;;;;;;5039856;28;20453;-70
2022/01/05 01:15:47;;;;;;;2.20;2.00;;;6.00;99.90;;;;;;5036009;28;20485;-70
2022/01/05 01:18:14;;;;;;;2.50;2.30;;;5.90;99.90;;;;;;5044989;28;20471;-70
2022/01/05 01:20:41;;;;;;;9.13;2.77;;;6.00;99.90;;;;;;5032483;28;20879;-70
2022/01/05 01:23:11;;;;;;;3.90;2.70;;;5.90;99.90;;;;;;5032847;28;20453;-70
2022/01/05 01:25:37;;;;;;;2.53;2.33;;;5.90;99.90;;;;;;5038723;28;20532;-70
2022/01/05 01:28:04;;;;;;;3.83;2.07;;;5.90;99.90;;;;;;5047932;28;21137;-70
2022/01/05 01:30:32;;;;;;;2.63;2.43;;;5.90;99.90;;;;;;5040485;28;20445;-70
2022/01/05 01:32:59;;;;;;;2.17;2.07;;;5.90;99.90;;;;;;5032666;28;20453;-70
2022/01/05 01:35:26;;;;;;;3.80;2.53;;;5.90;99.90;;;;;;5032527;28;20944;-70
2022/01/05 01:37:53;;;;;;;2.67;2.30;;;5.90;99.90;;;;;;5036408;28;20449;-70
2022/01/05 01:40:22;;;;;;;3.50;2.43;;;5.90;99.90;;;;;;5051791;28;20500;-70
2022/01/05 01:42:49;;;;;;;2.37;1.87;;;5.80;99.90;;;;;;5052213;28;20444;-70
2022/01/05 01:45:16;;;;;;;2.60;2.37;;;5.90;99.90;;;;;;5035653;28;20453;-70
2022/01/05 01:47:43;;;;;;;2.67;2.20;;;5.90;99.90;;;;;;5034313;28;20490;-70
2022/01/05 01:50:10;;;;;;;7.77;2.97;;;5.90;99.90;;;;;;5052223;28;20452;-70
2022/01/05 01:52:37;;;;;;;3.60;2.10;;;6.00;99.90;;;;;;5052087;28;20460;-70
2022/01/05 01:55:05;;;;;;;7.93;2.80;;;6.00;99.90;;;;;;5049890;28;20440;-70
2022/01/05 01:57:35;;;;;;;4.47;2.00;;;6.00;99.90;;;;;;5049565;28;20487;-70
2022/01/05 02:00:03;;;;;;;4.03;2.10;;;6.00;99.90;;;;;;5032422;28;20488;-70
2022/01/05 02:02:30;;;;;;;3.73;2.30;;;6.10;99.90;;;;;;5032172;28;21088;-70
2022/01/05 02:04:56;;;;;;;3.07;2.10;;;6.00;99.90;;;;;;5049575;28;20506;-70
2022/01/05 02:07:23;;;;;;;3.23;1.83;;;6.00;99.90;;;;;;5034490;28;20519;-70
2022/01/05 02:09:50;;;;;;;2.90;2.10;;;6.00;99.90;;;;;;5051691;28;20449;-70
2022/01/05 02:12:17;;;;;;;2.23;1.90;;;6.00;99.90;;;;;;5052157;28;20863;-70
2022/01/05 02:14:45;;;;;;;4.70;1.93;;;6.00;99.90;;;;;;5050075;28;20566;-70
2022/01/05 02:17:18;;;;;;;2.97;1.73;;;5.50;99.90;;;;;;5035591;28;20966;-70
2022/01/05 02:19:45;;;;;;;4.40;1.50;;;5.10;99.90;;;;;;5050175;28;20523;-70
2022/01/05 02:22:13;;;;;;;1.40;1.30;;;4.70;99.90;;;;;;5032454;28;20446;-70
2022/01/05 02:24:45;;;;;;;3.50;2.00;;;4.50;99.90;;;;;;5033383;28;20483;-69
2022/01/05 02:27:12;;;;;;;1.80;1.70;;;4.20;99.90;;;;;;5044960;28;20473;-70
2022/01/05 02:29:39;;;;;;;3.33;1.90;;;4.00;99.90;;;;;;5032894;28;20586;-70
2022/01/05 02:32:06;;;;;;;3.20;1.83;;;3.90;99.90;;;;;;5031477;28;20507;-70
2022/01/05 02:34:33;;;;;;;1.63;1.53;;;3.90;99.90;;;;;;5031661;28;20508;-70
2022/01/05 02:37:00;;;;;;;2.40;1.73;;;3.80;99.90;;;;;;5043648;28;20821;-71
2022/01/05 02:39:28;;;;;;;2.70;1.97;;;3.70;99.90;;;;;;5034882;28;20445;-70
2022/01/05 02:41:55;;;;;;;3.27;1.70;;;3.70;99.90;;;;;;5031478;28;20453;-70
2022/01/05 02:44:21;;;;;;;2.83;2.00;;;3.60;99.90;;;;;;5031247;28;20450;-70
2022/01/05 02:46:48;;;;;;;3.37;1.90;;;3.50;99.90;;;;;;5031190;28;20543;-70
2022/01/05 02:49:14;;;;;;;1.87;1.77;;;3.50;99.90;;;;;;5045889;28;21022;-70
2022/01/05 02:51:41;;;;;;;1.97;1.87;;;3.40;99.90;;;;;;5047166;28;20448;-71
2022/01/05 02:54:08;;;;;;;2.80;1.50;;;3.40;99.90;;;;;;5031156;28;20531;-70
2022/01/05 02:56:36;;;;;;;1.87;1.77;;;3.40;99.90;;;;;;5031408;28;20484;-70
2022/01/05 02:59:03;;;;;;;1.90;1.80;;;3.40;99.90;;;;;;5043985;28;20514;-70
2022/01/05 03:01:31;;;;;;;3.53;2.20;;;3.30;99.90;;;;;;5050705;28;20484;-70
2022/01/05 03:03:57;;;;;;;2.57;1.77;;;3.30;99.90;;;;;;5050061;28;20452;-70
2022/01/05 03:06:24;;;;;;;3.53;2.00;;;3.30;99.90;;;;;;5042075;28;20539;-70
2022/01/05 03:08:51;;;;;;;1.80;1.70;;;3.20;99.90;;;;;;5042290;28;20980;-70
2022/01/05 03:11:17;;;;;;;1.60;1.50;;;3.20;99.90;;;;;;5053170;28;20535;-70
2022/01/05 03:13:47;;;;;;;1.60;1.50;;;3.20;99.90;;;;;;5070395;28;20888;-70
2022/01/05 03:16:14;;;;;;;1.70;1.60;;;3.20;99.90;;;;;;5053593;28;21227;-70
2022/01/05 03:18:40;;;;;;;2.50;1.87;;;3.20;99.90;;;;;;5040044;28;20950;-70
2022/01/05 03:21:07;;;;;;;1.63;1.53;;;3.20;99.90;;;;;;5030571;28;20527;-70
2022/01/05 03:23:33;;;;;;;5.70;2.03;;;3.20;99.90;;;;;;5031224;28;20457;-70
2022/01/05 03:26:00;;;;;;;3.30;1.90;;;3.10;99.90;;;;;;5048824;28;20557;-70
2022/01/05 03:28:27;;;;;;;2.03;1.50;;;3.10;99.90;;;;;;5049797;28;20445;-70
2022/01/05 03:30:55;;;;;;;2.83;1.80;;;3.10;99.90;;;;;;5045855;28;20495;-70
2022/01/05 03:33:22;;;;;;;2.07;1.70;;;3.00;99.90;;;;;;5030603;28;21008;-70
2022/01/05 03:35:49;;;;;;;5.43;1.80;;;3.00;99.90;;;;;;5033601;28;20549;-70
2022/01/05 03:38:18;;;;;;;1.50;1.40;;;3.00;99.90;;;;;;5048816;28;20506;-70
2022/01/05 03:40:47;;;;;;;2.00;1.73;;;3.00;99.90;;;;;;5033868;28;20581;-70
2022/01/05 03:43:14;;;;;;;2.17;1.57;;;3.00;99.90;;;;;;5050069;28;20464;-70
2022/01/05 03:45:42;;;;;;;2.63;1.70;;;2.90;99.90;;;;;;5038689;28;20473;-70
2022/01/05 03:48:11;;;;;;;6.43;2.00;;;2.90;99.90;;;;;;5030189;28;20449;-70
2022/01/05 03:50:39;;;;;;;3.20;1.90;;;2.90;99.90;;;;;;5031179;28;20494;-70
2022/01/05 03:53:06;;;;;;;1.73;1.60;;;3.10;99.90;;;;;;5044061;28;20500;-70
2022/01/05 03:55:34;;;;;;;2.07;1.67;;;2.90;99.90;;;;;;5029690;28;21349;-70
2022/01/05 03:58:02;;;;;;;3.07;1.70;;;2.90;99.90;;;;;;5044211;28;20452;-70
2022/01/05 04:00:30;;;;;;;3.90;1.90;;;2.80;99.90;;;;;;5049560;28;20526;-70
2022/01/05 04:02:57;;;;;;;3.10;1.90;;;2.80;99.90;;;;;;5033982;28;20450;-70
2022/01/05 04:05:25;;;;;;;2.60;1.87;;;2.80;99.90;;;;;;5049944;28;20456;-70
2022/01/05 04:07:51;;;;;;;27.23;2.77;;;2.80;99.90;;;;;;5049216;28;20498;-70
2022/01/05 04:10:18;;;;;;;1.63;1.50;;;2.80;99.90;;;;;;5049302;28;20496;-70
2022/01/05 04:12:46;;;;;;;4.00;2.00;;;2.80;99.90;;;;;;5047231;28;20455;-70
2022/01/05 04:15:13;;;;;;;5.17;1.70;;;2.80;99.90;;;;;;5034212;28;20487;-70
2022/01/05 04:17:40;;;;;;;2.27;1.93;;;2.80;99.90;;;;;;5044247;28;20498;-70
2022/01/05 04:20:07;;;;;;;9.30;2.53;;;2.80;99.90;;;;;;5053579;28;20549;-71
2022/01/05 04:22:35;;;;;;;3.87;1.80;;;2.80;99.90;;;;;;5052266;28;20464;-70
2022/01/05 04:25:02;;;;;;;1.90;1.73;;;2.80;99.90;;;;;;5033939;28;20449;-70
2022/01/05 04:27:29;;;;;;;4.70;2.33;;;2.80;99.90;;;;;;5048194;28;20878;-70
2022/01/05 04:29:55;;;;;;;5.00;2.00;;;2.80;99.90;;;;;;5053278;28;20858;-70
2022/01/05 04:32:22;;;;;;;6.30;2.30;;;2.80;99.90;;;;;;5038605;28;20457;-70
2022/01/05 04:34:49;;;;;;;6.10;1.90;;;2.80;99.90;;;;;;5036827;28;20471;-70
2022/01/05 04:37:15;;;;;;;3.33;1.77;;;2.80;99.90;;;;;;5053723;28;20502;-70
2022/01/05 04:39:43;;;;;;;4.37;2.07;;;2.80;99.90;;;;;;5052073;28;20503;-70
2022/01/05 04:42:10;;;;;;;2.73;1.90;;;2.90;99.90;;;;;;5036952;28;20539;-70
2022/01/05 04:44:37;;;;;;;6.90;2.30;;;2.90;99.90;;;;;;5043690;28;20452;-70
2022/01/05 04:47:05;;;;;;;10.70;2.20;;;2.90;99.90;;;;;;5053221;28;20503;-70
2022/01/05 04:49:31;;;;;;;6.50;2.27;;;2.80;99.90;;;;;;5051748;28;20952;-70
2022/01/05 04:51:58;;;;;;;5.33;2.40;;;2.80;99.90;;;;;;5040152;28;20514;-70
2022/01/05 04:54:25;;;;;;;3.33;2.50;;;2.80;99.90;;;;;;5033610;28;20495;-70
2022/01/05 04:56:53;;;;;;;7.53;3.20;;;2.80;99.90;;;;;;5039466;28;20992;-70
2022/01/05 04:59:19;;;;;;;4.73;3.20;;;2.80;99.90;;;;;;5033797;28;20515;-70
2022/01/05 05:01:46;;;;;;;7.20;3.50;;;2.80;99.90;;;;;;5034255;28;20481;-70
2022/01/05 05:04:12;;;;;;;4.03;3.63;;;2.80;99.90;;;;;;5036765;28;20461;-70
2022/01/05 05:06:39;;;;;;;13.50;4.97;;;2.80;99.90;;;;;;5034395;28;20527;-70
2022/01/05 05:09:06;;;;;;;9.53;4.27;;;2.70;99.90;;;;;;5052027;28;20885;-70
2022/01/05 05:11:32;;;;;;;5.90;4.60;;;2.80;99.90;;;;;;5054550;28;20443;-70
2022/01/05 05:14:01;;;;;;;6.67;5.03;;;2.70;99.90;;;;;;5036576;28;20965;-70
2022/01/05 05:16:27;;;;;;;8.53;4.60;;;2.70;99.90;;;;;;5052480;28;20517;-70
2022/01/05 05:18:54;;;;;;;8.50;5.03;;;2.70;99.90;;;;;;5052765;28;20491;-70
2022/01/05 05:21:21;;;;;;;12.37;4.80;;;2.60;99.90;;;;;;5044936;28;20473;-70
2022/01/05 05:23:47;;;;;;;8.30;4.67;;;2.60;99.90;;;;;;5032012;28;20927;-70
2022/01/05 05:26:14;;;;;;;10.73;5.60;;;2.60;99.90;;;;;;5048636;28;20476;-70
2022/01/05 05:28:40;;;;;;;6.57;4.70;;;2.60;99.90;;;;;;5051280;28;20510;-70
2022/01/05 05:31:08;;;;;;;10.00;4.63;;;2.70;99.90;;;;;;5046604;28;20945;-70
2022/01/05 05:33:35;;;;;;;8.97;5.13;;;2.60;99.90;;;;;;5032906;28;20511;-70
2022/01/05 05:36:02;;;;;;;11.30;5.00;;;2.60;99.90;;;;;;5044032;28;20465;-70
2022/01/05 05:38:29;;;;;;;10.60;5.90;;;2.60;99.90;;;;;;5052444;28;20453;-70
2022/01/05 05:40:56;;;;;;;9.17;5.83;;;2.60;99.90;;;;;;5043050;28;20485;-71
2022/01/05 05:43:23;;;;;;;14.57;6.13;;;2.60;99.90;;;;;;5032580;28;20831;-70
2022/01/05 05:45:49;;;;;;;11.77;5.53;;;2.60;99.90;;;;;;5033008;28;20529;-70
2022/01/05 05:48:17;;;;;;;7.23;5.57;;;2.60;99.90;;;;;;5032422;28;20450;-70
2022/01/05 05:50:44;;;;;;;10.53;6.27;;;2.60;99.90;;;;;;5037426;28;20460;-70
2022/01/05 05:53:11;;;;;;;12.73;7.00;;;2.50;99.90;;;;;;5043743;28;20479;-70
2022/01/05 05:55:38;;;;;;;11.17;7.33;;;2.40;99.90;;;;;;5043163;28;20480;-70
2022/01/05 05:58:04;;;;;;;11.00;6.73;;;2.40;99.90;;;;;;5033729;28;20512;-70
2022/01/05 06:00:31;;;;;;;17.57;6.63;;;2.40;99.90;;;;;;5033340;28;20461;-70
2022/01/05 06:02:58;;;;;;;9.87;6.10;;;2.40;99.90;;;;;;5037566;28;20461;-70
2022/01/05 06:05:26;;;;;;;13.20;6.70;;;2.40;99.90;;;;;;5034240;28;20453;-70
2022/01/05 06:07:53;;;;;;;9.23;5.30;;;2.40;99.90;;;;;;5044065;28;20454;-70
2022/01/05 06:10:20;;;;;;;11.43;5.67;;;2.40;99.90;;;;;;5043124;28;20489;-69
2022/01/05 06:12:47;;;;;;;12.53;4.83;;;2.40;99.90;;;;;;5052605;28;20506;-69
2022/01/05 06:15:13;;;;;;;9.30;4.73;;;2.30;99.90;;;;;;5049839;28;20518;-70
2022/01/05 06:17:40;;;;;;;12.40;4.33;;;2.30;99.90;;;;;;5035338;28;20814;-70
2022/01/05 06:20:09;;;;;;;7.20;4.27;;;2.30;99.90;;;;;;5038919;28;20459;-70
2022/01/05 06:22:40;;;;;;;5.30;4.13;;;2.20;99.90;;;;;;5050596;28;20491;-70
2022/01/05 06:25:09;;;;;;;24.03;4.53;;;2.20;99.90;;;;;;5035932;28;20457;-70
2022/01/05 06:27:36;;;;;;;5.23;4.27;;;2.10;99.90;;;;;;5043943;28;20470;-69
2022/01/05 06:30:06;;;;;;;15.87;5.17;;;2.10;99.90;;;;;;5036500;28;20510;-69
2022/01/05 06:32:34;;;;;;;5.17;4.60;;;2.00;99.90;;;;;;5051365;28;20873;-71
2022/01/05 06:35:01;;;;;;;14.10;3.90;;;2.00;99.90;;;;;;5036026;28;20460;-70
2022/01/05 06:37:28;;;;;;;17.60;4.83;;;2.00;99.90;;;;;;5031185;28;20560;-71
2022/01/05 06:39:56;;;;;;;13.13;4.00;;;2.00;99.90;;;;;;5039487;28;20448;-71
2022/01/05 06:42:23;;;;;;;14.33;3.50;;;1.90;99.90;;;;;;5032695;28;20993;-70
2022/01/05 06:44:49;;;;;;;8.40;4.03;;;2.00;99.90;;;;;;5041034;28;20464;-71
2022/01/05 06:47:16;;;;;;;20.97;4.20;;;1.90;99.90;;;;;;5040083;28;20472;-71
2022/01/05 06:49:43;;;;;;;11.17;3.07;;;1.90;99.90;;;;;;5046634;28;20460;-70
2022/01/05 06:52:11;;;;;;;7.27;3.13;;;1.90;99.90;;;;;;5040808;28;20460;-71
2022/01/05 06:54:38;;;;;;;13.40;3.20;;;1.90;99.90;;;;;;5034229;28;20900;-70
2022/01/05 06:57:08;;;;;;;5.70;3.20;;;1.90;99.90;;;;;;5083922;22;20547;-89
2022/01/05 06:59:36;;;;;;;6.87;3.47;;;2.10;99.90;;;;;;5095639;28;20457;-91
2022/01/05 07:04:45;;;;;;;17.23;3.70;;;2.00;99.90;;;;;;5109155;28;20430;-95
2022/01/05 07:07:11;;;;;;;7.00;3.53;;;1.90;99.90;;;;;;5098168;28;20561;-93
2022/01/05 07:09:38;;;;;;;7.20;3.10;;;2.00;99.90;;;;;;5089926;28;20454;-90
2022/01/05 07:12:09;;;;;;;8.83;3.23;;;1.90;99.90;;;;;;5090194;28;20531;-91
2022/01/05 07:14:35;;;;;;;3.40;2.60;;;1.90;99.90;;;;;;5083435;28;20455;-92
2022/01/05 07:17:04;;;;;;;7.53;2.83;;;1.90;99.90;;;;;;5098350;28;20946;-91
2022/01/05 07:19:31;;;;;;;4.33;2.77;;;1.90;99.90;;;;;;5114533;28;20944;-91
2022/01/05 07:21:58;;;;;;;13.63;3.10;;;1.80;99.90;;;;;;5118003;28;20516;-91
2022/01/05 07:24:25;;;;;;;8.93;3.10;;;1.60;99.90;;;;;;5107324;28;20461;-92
2022/01/05 07:26:52;;;;;;;9.53;3.20;;;1.70;99.90;;;;;;5095962;28;20455;-91
2022/01/05 07:29:21;;;;;;;10.37;3.77;;;1.70;99.90;;;;;;5092520;28;20451;-92
2022/01/05 07:31:48;;;;;;;10.33;3.00;;;1.70;99.90;;;;;;5075262;28;20462;-90
2022/01/05 07:34:15;;;;;;;6.33;3.30;;;1.70;99.90;;;;;;5091411;28;20526;-91
2022/01/05 07:36:42;;;;;;;6.97;3.23;;;1.70;99.90;;;;;;5094821;28;20449;-91
2022/01/05 07:39:20;;;;;;;8.63;3.73;;;1.70;99.90;;;;;;5086822;28;20450;-90
2022/01/05 07:41:47;;;;;;;7.87;2.87;;;1.80;99.90;;;;;;5077066;28;20471;-91
2022/01/05 07:44:14;;;;;;;8.10;3.50;;;1.80;99.90;;;;;;5081937;28;20521;-91
2022/01/05 07:46:42;;;;;;;14.40;4.70;;;1.80;99.90;;;;;;5077385;28;20451;-89
2022/01/05 07:49:09;;;;;;;17.00;3.87;;;1.70;99.90;;;;;;5092358;28;20455;-89
2022/01/05 07:51:35;;;;;;;14.13;3.60;;;1.70;99.90;;;;;;5088728;28;20511;-90
2022/01/05 07:54:03;;;;;;;10.40;3.47;;;1.70;99.90;;;;;;5074825;28;20966;-89
2022/01/05 07:56:31;;;;;;;13.77;4.07;;;1.70;99.90;;;;;;5081415;28;20466;-89
2022/01/05 07:58:58;;;;;;;15.50;4.17;;;1.70;99.90;;;;;;5089185;28;20473;-89
2022/01/05 08:01:24;;;;;;;16.57;5.20;;;1.80;99.90;;;;;;5098605;28;20523;-89
2022/01/05 08:03:53;;;;;;;7.77;4.33;;;1.70;99.90;;;;;;5083457;28;20474;-90
2022/01/05 08:06:20;;;;;;;13.80;3.40;;;1.70;99.90;;;;;;5085107;28;20819;-90
2022/01/05 08:08:46;;;;;;;9.27;3.40;;;1.70;99.90;;;;;;5088711;28;20815;-91
2022/01/05 08:11:14;;;;;;;9.93;3.50;;;1.70;99.90;;;;;;5080817;28;20451;-90
2022/01/05 08:13:40;;;;;;;10.53;4.13;;;1.70;99.90;;;;;;5070804;28;20467;-90
2022/01/05 08:16:07;;;;;;;7.10;3.50;;;1.70;99.90;;;;;;5075225;28;20456;-90
2022/01/05 08:18:34;;;;;;;13.17;3.13;;;1.80;99.90;;;;;;5070710;28;20460;-90
2022/01/05 08:21:03;;;;;;;9.90;3.37;;;1.80;99.90;;;;;;5077346;28;20554;-90
2022/01/05 08:23:30;;;;;;;8.53;2.57;;;1.80;99.90;;;;;;5087588;28;20821;-90
2022/01/05 08:25:57;;;;;;;9.03;3.00;;;1.80;99.90;;;;;;5084507;28;20478;-90
2022/01/05 08:28:24;;;;;;;11.77;3.37;;;1.80;99.90;;;;;;5083705;28;20448;-89
2022/01/05 08:30:51;;;;;;;12.70;3.47;;;2.20;99.90;;;;;;5091009;28;20451;-90
2022/01/05 08:33:19;;;;;;;15.27;3.23;;;3.00;99.90;;;;;;5082988;28;20458;-90
2022/01/05 08:35:46;;;;;;;10.50;2.90;;;3.50;99.90;;;;;;5086682;28;20452;-89
2022/01/05 08:38:15;;;;;;;11.37;3.20;;;3.60;99.90;;;;;;5092477;28;20447;-91
2022/01/05 08:40:43;;;;;;;10.60;4.20;;;3.80;99.90;;;;;;5098258;28;20438;-89
2022/01/05 08:43:11;;;;;;;8.20;2.87;;;4.00;99.90;;;;;;5084803;28;20590;-89
2022/01/05 08:45:38;;;;;;;16.07;3.43;;;3.80;99.90;;;;;;5098939;28;20450;-90
2022/01/05 08:48:05;;;;;;;9.27;2.77;;;3.70;99.90;;;;;;5092278;28;20454;-89
2022/01/05 08:50:34;;;;;;;11.47;3.53;;;3.90;99.90;;;;;;5085061;28;20435;-92
2022/01/05 08:53:01;;;;;;;13.83;3.10;;;3.90;99.90;;;;;;5094903;28;20471;-89
2022/01/05 08:55:31;;;;;;;16.63;3.23;;;3.80;99.90;;;;;;5094271;28;20442;-90
2022/01/05 08:57:59;;;;;;;9.70;2.77;;;4.00;99.90;;;;;;5093668;28;20474;-91
2022/01/05 09:00:26;;;;;;;9.17;3.00;;;4.00;99.90;;;;;;5099636;28;20450;-91
2022/01/05 09:02:53;;;;;;;8.87;2.97;;;3.70;99.90;;;;;;5102571;28;20528;-90
2022/01/05 09:05:20;;;;;;;11.77;2.90;;;3.40;99.90;;;;;;5092060;28;20458;-91
2022/01/05 09:07:47;;;;;;;12.60;3.17;;;3.00;99.90;;;;;;5094380;28;20458;-88
2022/01/05 09:10:14;;;;;;;8.63;3.23;;;2.80;99.90;;;;;;5100486;28;20453;-89
2022/01/05 09:12:42;;;;;;;14.23;3.77;;;2.80;99.90;;;;;;5100164;28;20470;-90
2022/01/05 09:15:10;;;;;;;8.33;2.73;;;2.60;99.90;;;;;;5106615;28;20454;-89
2022/01/05 09:17:36;;;;;;;9.40;3.27;;;2.50;99.90;;;;;;5096703;28;20455;-89
2022/01/05 09:20:04;;;;;;;9.47;3.03;;;2.50;99.90;;;;;;5100543;28;20451;-90
2022/01/05 09:22:31;;;;;;;8.33;3.10;;;2.50;99.90;;;;;;5092269;28;20533;-89
2022/01/05 09:24:58;;;;;;;7.30;3.63;;;2.50;99.90;;;;;;5078668;28;20517;-89
2022/01/05 09:27:25;;;;;;;10.37;3.37;;;2.40;99.90;;;;;;5089721;28;20451;-90
2022/01/05 09:29:53;;;;;;;12.03;3.10;;;2.40;99.90;;;;;;5094932;28;20459;-89
2022/01/05 09:32:20;;;;;;;14.23;3.20;;;2.40;99.90;;;;;;5075531;28;20471;-91
2022/01/05 09:34:47;;;;;;;12.33;3.47;;;2.40;99.90;;;;;;5080303;28;20563;-91
2022/01/05 09:37:20;;;;;;;4.60;2.80;;;2.40;99.90;;;;;;5086719;28;20458;-91
2022/01/05 09:42:32;;;;;;;7.57;2.90;;;2.40;99.90;;;;;;5084698;28;20486;-90
2022/01/05 09:45:00;;;;;;;9.63;3.10;;;2.40;99.90;;;;;;5102622;28;20458;-91
2022/01/05 09:47:48;;;;;;;10.00;3.37;;;2.40;99.90;;;;;;5088178;28;20450;-92
2022/01/05 09:50:15;;;;;;;14.53;3.03;;;2.40;99.90;;;;;;5081267;28;20456;-91
2022/01/05 09:52:44;;;;;;;5.37;3.00;;;2.40;99.90;;;;;;5093305;28;20919;-91
2022/01/05 09:55:12;;;;;;;19.90;3.40;;;2.40;99.90;;;;;;5094777;28;20439;-91
2022/01/05 09:57:40;;;;;;;19.00;3.40;;;2.40;99.90;;;;;;5085400;28;20851;-91
2022/01/05 10:00:11;;;;;;;12.93;3.43;;;2.40;99.90;;;;;;5095771;28;20459;-91
2022/01/05 10:02:38;;;;;;;10.90;2.90;;;2.40;99.90;;;;;;5087260;28;20495;-91
2022/01/05 10:05:08;;;;;;;6.90;3.10;;;2.40;99.90;;;;;;5094304;28;20447;-92
2022/01/05 10:07:35;;;;;;;11.43;3.13;;;2.50;99.90;;;;;;5095546;28;20477;-92
2022/01/05 10:10:03;;;;;;;22.30;3.90;;;2.50;99.90;;;;;;5095823;28;20805;-91
2022/01/05 10:12:30;;;;;;;10.43;3.10;;;2.50;99.90;;;;;;5095042;28;20466;-91
2022/01/05 10:14:56;;;;;;;11.00;3.30;;;2.60;99.90;;;;;;5096407;28;20476;-91
2022/01/05 10:17:26;;;;;;;13.43;3.80;;;2.60;99.90;;;;;;5094941;28;21012;-92
2022/01/05 10:19:57;;;;;;;11.73;3.07;;;2.70;99.90;;;;;;5095828;28;20457;-91
2022/01/05 10:22:28;;;;;;;9.03;2.97;;;2.70;99.90;;;;;;5092632;28;20475;-92
2022/01/05 10:24:56;;;;;;;8.90;2.83;;;2.80;99.90;;;;;;5079548;28;20451;-91
2022/01/05 10:27:25;;;;;;;11.23;2.90;;;2.80;99.90;;;;;;5081451;28;20519;-91
2022/01/05 10:29:54;;;;;;;14.20;3.00;;;2.80;99.90;;;;;;5086104;28;20458;-91
2022/01/05 10:32:21;;;;;;;10.73;3.53;;;2.90;99.90;;;;;;5088594;28;20467;-91
2022/01/05 10:35:06;;;;;;;10.50;3.33;;;2.90;99.90;;;;;;5086516;28;20446;-90
2022/01/05 10:37:33;;;;;;;6.20;2.70;;;3.00;99.90;;;;;;5094189;28;20631;-90
2022/01/05 10:40:09;;;;;;;10.23;3.40;;;3.00;99.90;;;;;;5097553;28;20443;-90
2022/01/05 10:42:37;;;;;;;14.40;3.70;;;3.10;99.90;;;;;;5090955;28;20878;-91
2022/01/05 10:45:05;;;;;;;15.47;3.63;;;3.10;99.90;;;;;;5097745;28;20907;-92
2022/01/05 10:47:33;;;;;;;6.30;2.83;;;3.20;99.90;;;;;;5093097;28;20459;-91
2022/01/05 10:50:01;;;;;;;8.40;3.20;;;3.20;99.90;;;;;;5086979;28;20451;-91
2022/01/05 10:52:30;;;;;;;9.30;3.03;;;3.30;99.90;;;;;;5085724;28;20478;-91
2022/01/05 10:55:09;;;;;;;10.57;3.20;;;3.30;99.90;;;;;;5095328;28;20798;-91
2022/01/05 10:57:36;;;;;;;7.50;2.70;;;3.30;99.90;;;;;;5096083;28;20455;-91
2022/01/05 11:00:06;;;;;;;9.43;2.70;;;3.40;99.90;;;;;;5086841;28;20859;-91
2022/01/05 11:02:35;;;;;;;4.70;2.40;;;3.40;99.90;;;;;;5082168;28;20484;-91
2022/01/05 11:05:16;;;;;;;5.37;2.90;;;3.30;99.90;;;;;;5100135;28;20450;-92
2022/01/05 11:07:46;;;;;;;9.23;3.10;;;3.40;99.90;;;;;;5094649;28;20510;-91
2022/01/05 11:10:16;;;;;;;16.57;3.00;;;3.40;99.90;;;;;;5091076;28;20443;-92
2022/01/05 11:12:45;;;;;;;4.50;2.23;;;3.40;99.90;;;;;;5093123;28;20471;-91
2022/01/05 11:15:27;;;;;;;6.30;2.60;;;3.40;99.90;;;;;;5091543;28;20448;-91
2022/01/05 11:18:15;;;;;;;6.93;2.70;;;3.50;99.90;;;;;;5103567;28;20522;-91
2022/01/05 11:20:52;;;;;;;14.03;2.70;;;3.50;99.90;;;;;;5097725;28;20466;-91
2022/01/05 11:23:19;;;;;;;14.47;3.67;;;3.50;99.90;;;;;;5095801;28;20542;-91
2022/01/05 11:25:47;;;;;;;9.47;2.97;;;3.60;99.90;;;;;;5092981;28;20482;-90
2022/01/05 11:28:17;;;;;;;6.50;3.10;;;3.60;99.90;;;;;;5081597;28;20439;-90
2022/01/05 11:30:45;;;;;;;9.87;2.97;;;3.60;99.90;;;;;;5085451;28;20451;-90
2022/01/05 11:33:13;;;;;;;15.60;2.93;;;3.70;99.90;;;;;;5085484;28;20472;-91
2022/01/05 11:35:40;;;;;;;5.43;2.23;;;3.80;99.90;;;;;;5086776;28;20966;-92
2022/01/05 11:38:09;;;;;;;10.17;3.03;;;3.80;99.90;;;;;;5083503;28;20474;-90
2022/01/05 11:40:39;;;;;;;8.93;2.90;;;3.80;99.90;;;;;;5086043;28;20479;-91
2022/01/05 11:43:09;;;;;;;5.97;2.53;;;3.80;99.90;;;;;;5080513;28;20482;-91
2022/01/05 11:45:44;;;;;;;8.07;2.63;;;3.80;99.90;;;;;;5080268;28;20457;-90
2022/01/05 11:48:23;;;;;;;8.00;2.83;;;4.00;99.90;;;;;;5087941;28;20860;-91
2022/01/05 11:50:53;;;;;;;7.90;2.50;;;4.00;99.90;;;;;;5082713;28;20443;-91
2022/01/05 11:53:37;;;;;;;7.00;2.80;;;4.00;99.90;;;;;;5090871;28;20579;-91
2022/01/05 11:56:10;;;;;;;10.03;2.47;;;4.00;99.90;;;;;;5074300;28;20463;-91
2022/01/05 11:58:48;;;;;;;8.83;2.90;;;4.00;99.90;;;;;;5074185;28;20982;-92
2022/01/05 12:01:33;;;;;;;9.43;2.70;;;4.00;99.90;;;;;;5072476;28;20507;-91
2022/01/05 12:04:11;;;;;;;10.27;3.87;;;3.90;99.90;;;;;;5074239;28;20493;-91
2022/01/05 12:07:03;;;;;;;11.13;3.23;;;3.90;99.90;;;;;;5073650;28;20947;-90
2022/01/05 12:09:33;;;;;;;13.67;3.30;;;3.90;99.90;;;;;;5069005;28;20459;-91
2022/01/05 12:12:03;;;;;;;8.50;2.70;;;3.90;99.90;;;;;;5086036;28;20462;-91
2022/01/05 12:14:54;;;;;;;9.23;2.70;;;4.00;99.90;;;;;;5106608;28;20431;-92
2022/01/05 12:17:21;;;;;;;13.13;2.90;;;4.00;99.90;;;;;;5087571;28;20460;-91
2022/01/05 12:20:11;;;;;;;11.47;3.00;;;4.00;99.90;;;;;;5088867;28;20456;-91
2022/01/05 12:22:39;;;;;;;9.33;2.90;;;4.00;99.90;;;;;;5087089;28;20512;-90
2022/01/05 12:25:13;;;;;;;10.90;4.20;;;4.00;99.90;;;;;;5074545;28;20455;-91
2022/01/05 12:27:51;;;;;;;8.30;2.97;;;4.10;99.90;;;;;;5092091;28;20451;-91
2022/01/05 12:30:38;;;;;;;9.33;4.23;;;4.10;99.90;;;;;;5099310;22;20438;-75
2022/01/05 12:33:09;;;;;;;11.53;3.60;;;4.10;99.90;;;;;;5066176;28;20459;-74
2022/01/05 12:35:48;;;;;;;10.13;3.97;;;4.20;99.90;;;;;;5072054;28;20533;-75
2022/01/05 12:38:30;;;;;;;9.47;3.33;;;4.30;99.90;;;;;;5046786;28;20453;-75
2022/01/05 12:40:59;;;;;;;12.10;2.70;;;4.60;99.90;;;;;;5039025;28;20507;-75
2022/01/05 12:43:39;;;;;;;6.17;2.53;;;5.00;99.90;;;;;;5036910;28;21009;-74
2022/01/05 12:46:13;;;;;;;11.50;5.13;;;5.30;99.90;;;;;;5036821;28;20584;-77
2022/01/05 12:48:55;;;;;;;10.53;2.90;;;5.50;99.90;;;;;;5042321;28;20456;-74
2022/01/05 12:51:52;;;;;;;4.33;2.20;;;6.00;99.90;;;;;;5045041;28;20461;-74
2022/01/05 12:54:25;;;;;;;18.00;2.73;;;6.20;99.90;;;;;;5036342;28;20571;-75
2022/01/05 12:56:56;;;;;;;7.93;2.90;;;6.40;99.90;;;;;;5039805;28;20501;-74
2022/01/05 12:59:29;;;;;;;12.40;2.83;;;6.50;99.90;;;;;;5042152;28;20458;-76
2022/01/05 13:01:57;;;;;;;12.07;2.70;;;6.50;99.90;;;;;;5034364;28;20468;-74
2022/01/05 13:04:25;;;;;;;12.07;3.67;;;6.40;99.90;;;;;;5042195;28;20462;-74
2022/01/05 13:06:53;;;;;;;6.37;2.67;;;6.30;99.90;;;;;;5036255;28;20473;-74